Time;durP1;ratioP1;P1;durP2;ratioP2;P2;SDS_P1;SDS_P2;PMS_P1;PMS_P2;Temp;Humidity;BMP_temperature;BMP_pressure;BME280_temperature;BME280_humidity;BME280_pressure;Samples;Min_cycle;Max_cycle;Signal;HPM_P1;HPM_P2
2022/09/08 00:00:20;;;;;;;7.53;6.22;;;16.90;99.90;;;;;;4977684;28;20088;-77
2022/09/08 00:02:46;;;;;;;13.50;6.63;;;17.00;99.90;;;;;;5008926;28;20073;-76
2022/09/08 00:05:14;;;;;;;11.48;7.10;;;16.90;99.90;;;;;;5013346;28;20042;-76
2022/09/08 00:07:42;;;;;;;14.65;7.25;;;16.90;99.90;;;;;;4996937;28;20068;-76
2022/09/08 00:10:08;;;;;;;11.95;7.25;;;16.90;99.90;;;;;;5010535;28;20494;-75
2022/09/08 00:12:41;;;;;;;11.38;7.70;;;16.90;99.90;;;;;;4995298;28;20049;-76
2022/09/08 00:15:08;;;;;;;11.88;8.45;;;16.90;99.90;;;;;;4996861;28;20053;-75
2022/09/08 00:17:34;;;;;;;15.43;9.27;;;16.90;99.90;;;;;;4996303;28;20038;-76
2022/09/08 00:20:00;;;;;;;17.15;9.38;;;16.80;99.90;;;;;;4996515;28;20131;-76
2022/09/08 00:22:27;;;;;;;12.82;10.32;;;16.80;99.90;;;;;;5013150;28;20042;-75
2022/09/08 00:24:52;;;;;;;14.50;10.40;;;16.80;99.90;;;;;;5011401;28;20053;-75
2022/09/08 00:27:18;;;;;;;14.15;10.73;;;16.80;99.90;;;;;;4992529;28;20046;-75
2022/09/08 00:29:44;;;;;;;15.18;11.35;;;16.80;99.90;;;;;;5009760;28;20042;-77
2022/09/08 00:32:10;;;;;;;17.80;12.07;;;16.80;99.90;;;;;;5009542;28;20049;-75
2022/09/08 00:34:36;;;;;;;15.60;11.57;;;16.80;99.90;;;;;;5015237;28;20133;-78
2022/09/08 00:37:02;;;;;;;15.32;12.15;;;16.80;99.90;;;;;;5016299;28;20439;-75
2022/09/08 00:39:27;;;;;;;13.15;11.73;;;16.80;99.90;;;;;;4998342;28;20320;-76
2022/09/08 00:41:55;;;;;;;16.20;12.30;;;16.80;99.90;;;;;;5006301;28;20157;-76
2022/09/08 00:44:49;;;;;;;21.52;13.73;;;16.80;99.90;;;;;;5011416;28;20046;-76
2022/09/08 00:47:22;;;;;;;23.00;14.95;;;16.80;99.90;;;;;;4994599;28;20339;-76
2022/09/08 00:50:08;;;;;;;17.17;14.65;;;16.80;99.90;;;;;;5005007;28;20085;-75
2022/09/08 00:52:46;;;;;;;25.48;15.13;;;16.80;99.90;;;;;;5011968;28;20474;-75
2022/09/08 00:55:12;;;;;;;20.98;14.80;;;16.80;99.90;;;;;;5012430;28;20083;-76
2022/09/08 00:57:38;;;;;;;21.70;15.27;;;16.80;99.90;;;;;;5009642;28;20037;-76
2022/09/08 01:00:07;;;;;;;19.23;15.48;;;16.80;99.90;;;;;;5012794;28;20120;-75
2022/09/08 01:02:32;;;;;;;18.75;16.20;;;16.90;99.90;;;;;;4995774;28;20053;-77
2022/09/08 01:05:09;;;;;;;22.30;15.85;;;16.90;99.90;;;;;;4995936;28;20062;-76
2022/09/08 01:13:26;;;;;;;21.20;17.77;;;16.80;99.90;;;;;;4996587;28;20046;-76
2022/09/08 01:15:52;;;;;;;23.67;18.10;;;16.80;99.90;;;;;;5000606;28;20100;-76
2022/09/08 01:18:17;;;;;;;27.65;19.23;;;16.70;99.90;;;;;;5012048;28;20045;-75
2022/09/08 01:20:50;;;;;;;24.80;19.42;;;16.80;99.90;;;;;;5011994;28;20502;-76
2022/09/08 01:23:39;;;;;;;30.75;20.88;;;16.80;99.90;;;;;;5011938;28;20450;-76
2022/09/08 01:26:50;;;;;;;25.00;20.70;;;16.80;99.90;;;;;;5010173;28;20033;-75
2022/09/08 01:29:18;;;;;;;26.63;21.65;;;16.80;99.90;;;;;;4991534;28;20097;-75
2022/09/08 01:31:45;;;;;;;28.27;22.63;;;16.80;99.90;;;;;;4992481;28;20050;-75
2022/09/08 01:34:11;;;;;;;28.88;22.88;;;16.80;99.90;;;;;;5006220;28;20049;-76
2022/09/08 01:36:36;;;;;;;29.63;22.88;;;16.80;99.90;;;;;;5022944;28;20133;-73
2022/09/08 01:39:02;;;;;;;34.00;24.73;;;16.90;99.90;;;;;;5004512;28;20038;-75
2022/09/08 01:41:28;;;;;;;31.45;25.00;;;16.90;99.90;;;;;;5011605;28;20046;-76
2022/09/08 01:43:54;;;;;;;32.70;25.45;;;17.00;99.90;;;;;;5010107;28;20045;-76
2022/09/08 01:46:20;;;;;;;35.10;25.17;;;17.00;99.90;;;;;;4995068;28;20144;-74
2022/09/08 01:48:45;;;;;;;34.38;25.80;;;16.90;99.90;;;;;;4990993;28;20040;-76
2022/09/08 01:51:11;;;;;;;32.65;25.17;;;17.00;99.90;;;;;;4991858;28;20136;-75
2022/09/08 01:53:37;;;;;;;35.28;26.13;;;17.10;99.90;;;;;;4994917;28;20381;-77
2022/09/08 01:56:05;;;;;;;34.88;26.02;;;17.10;99.90;;;;;;4991589;28;20400;-74
2022/09/08 01:58:32;;;;;;;31.65;25.63;;;17.10;99.90;;;;;;4990303;28;20065;-76
2022/09/08 02:00:58;;;;;;;38.53;26.67;;;17.10;99.90;;;;;;4976191;28;20034;-77
2022/09/08 02:03:24;;;;;;;35.20;28.05;;;17.20;99.90;;;;;;4994609;28;20151;-77
2022/09/08 02:05:49;;;;;;;36.88;27.38;;;17.10;99.90;;;;;;5010968;28;20046;-75
2022/09/08 02:08:15;;;;;;;33.03;26.58;;;17.20;99.90;;;;;;5008330;28;20087;-75
2022/09/08 02:10:41;;;;;;;36.85;29.60;;;17.20;99.90;;;;;;4975232;28;20085;-74
2022/09/08 02:13:07;;;;;;;35.38;28.58;;;17.20;99.90;;;;;;5005703;28;20049;-75
2022/09/08 02:15:33;;;;;;;36.15;27.85;;;17.20;99.90;;;;;;4994584;28;20451;-76
2022/09/08 02:17:59;;;;;;;32.05;27.88;;;17.30;99.90;;;;;;4994323;28;20056;-77
2022/09/08 02:20:26;;;;;;;33.90;28.23;;;17.30;99.90;;;;;;5011052;28;20320;-75
2022/09/08 02:22:53;;;;;;;32.67;27.25;;;17.30;99.90;;;;;;4994415;28;20405;-75
2022/09/08 02:25:20;;;;;;;36.75;27.95;;;17.40;99.90;;;;;;5009305;28;20044;-76
2022/09/08 02:27:46;;;;;;;36.45;28.48;;;17.30;99.90;;;;;;5009318;28;20046;-76
2022/09/08 02:30:11;;;;;;;34.42;27.95;;;17.30;99.90;;;;;;4994224;28;20042;-75
2022/09/08 02:32:37;;;;;;;35.85;28.30;;;17.30;99.90;;;;;;4996864;28;20436;-76
2022/09/08 02:35:03;;;;;;;37.55;29.23;;;17.30;99.90;;;;;;5007134;28;20038;-75
2022/09/08 02:37:29;;;;;;;34.42;28.20;;;17.30;99.90;;;;;;5010276;28;20084;-75
2022/09/08 02:39:55;;;;;;;35.75;29.58;;;17.40;99.90;;;;;;5010958;28;20465;-77
2022/09/08 02:42:21;;;;;;;35.78;30.63;;;17.30;99.90;;;;;;5000404;28;20050;-75
2022/09/08 02:44:47;;;;;;;35.47;30.23;;;17.30;99.90;;;;;;4986399;28;20068;-76
2022/09/08 02:47:12;;;;;;;39.08;30.50;;;17.30;99.90;;;;;;5010306;28;20369;-76
2022/09/08 02:49:38;;;;;;;39.20;30.35;;;17.40;99.90;;;;;;4999854;28;20046;-75
2022/09/08 02:52:04;;;;;;;37.15;30.83;;;17.30;99.90;;;;;;4990570;28;20053;-75
2022/09/08 02:54:29;;;;;;;42.78;31.20;;;17.40;99.90;;;;;;4987172;28;20053;-73
2022/09/08 02:56:55;;;;;;;39.38;32.20;;;17.40;99.90;;;;;;5010165;28;20036;-75
2022/09/08 02:59:20;;;;;;;41.42;32.75;;;17.40;99.90;;;;;;5009767;28;20338;-75
2022/09/08 03:01:46;;;;;;;37.72;31.50;;;17.40;99.90;;;;;;4994076;28;20455;-75
2022/09/08 03:04:13;;;;;;;41.58;32.42;;;17.40;99.90;;;;;;5010354;28;20405;-75
2022/09/08 03:06:39;;;;;;;44.88;32.60;;;17.50;99.90;;;;;;4996165;28;20084;-75
2022/09/08 03:09:06;;;;;;;42.00;32.97;;;17.50;99.90;;;;;;5012100;28;20045;-76
2022/09/08 03:11:34;;;;;;;44.28;32.10;;;17.50;99.90;;;;;;4990657;28;20086;-74
2022/09/08 03:14:00;;;;;;;40.95;32.22;;;17.50;99.90;;;;;;5009685;28;20054;-76
2022/09/08 03:16:29;;;;;;;43.30;33.55;;;17.40;99.90;;;;;;4979032;28;20042;-74
2022/09/08 03:18:55;;;;;;;45.65;33.28;;;17.40;99.90;;;;;;4994559;28;20045;-74
2022/09/08 03:21:21;;;;;;;44.72;33.67;;;17.50;99.90;;;;;;5010642;28;20447;-75
2022/09/08 03:23:47;;;;;;;43.30;34.00;;;17.50;99.90;;;;;;5011522;28;20469;-75
2022/09/08 03:26:17;;;;;;;44.70;33.90;;;17.50;99.90;;;;;;4996078;28;20046;-76
2022/09/08 03:28:44;;;;;;;42.40;32.63;;;17.50;99.90;;;;;;5012826;28;20046;-76
2022/09/08 03:31:12;;;;;;;45.42;34.45;;;17.40;99.90;;;;;;4997543;28;20191;-76
2022/09/08 03:33:38;;;;;;;43.45;34.08;;;17.40;99.90;;;;;;5025131;28;20037;-78
2022/09/08 03:36:06;;;;;;;46.25;33.50;;;17.40;99.90;;;;;;5033684;28;20468;-76
2022/09/08 03:38:33;;;;;;;41.08;35.08;;;17.40;99.90;;;;;;5006898;28;20056;-76
2022/09/08 03:40:59;;;;;;;42.92;34.50;;;17.40;99.90;;;;;;4989594;28;20034;-76
2022/09/08 03:43:25;;;;;;;44.17;35.47;;;17.40;99.90;;;;;;4999451;28;20047;-75
2022/09/08 03:45:51;;;;;;;46.17;36.85;;;17.40;99.90;;;;;;4994303;28;20046;-75
2022/09/08 03:48:16;;;;;;;47.20;36.53;;;17.30;99.90;;;;;;4993756;28;20042;-76
2022/09/08 03:50:43;;;;;;;43.78;36.58;;;17.30;99.90;;;;;;5013615;28;20105;-76
2022/09/08 03:53:10;;;;;;;46.15;37.05;;;17.30;99.90;;;;;;5013247;28;20054;-76
2022/09/08 03:55:39;;;;;;;45.17;37.53;;;17.30;99.90;;;;;;4996904;28;20057;-76
2022/09/08 03:58:05;;;;;;;47.38;37.10;;;17.30;99.90;;;;;;5011349;28;20457;-75
2022/09/08 04:00:33;;;;;;;46.58;37.95;;;17.30;99.90;;;;;;4996206;28;20073;-75
2022/09/08 04:02:59;;;;;;;44.28;37.30;;;17.30;99.90;;;;;;4993585;28;20088;-75
2022/09/08 04:05:25;;;;;;;52.20;37.85;;;17.30;99.90;;;;;;4977535;28;20057;-76
2022/09/08 04:07:51;;;;;;;51.88;38.38;;;17.30;99.90;;;;;;4991388;28;20061;-76
2022/09/08 04:10:17;;;;;;;50.60;38.60;;;17.30;99.90;;;;;;4996665;28;20042;-74
2022/09/08 04:12:43;;;;;;;44.13;38.15;;;17.30;99.90;;;;;;5012059;28;20177;-75
2022/09/08 04:15:10;;;;;;;45.63;37.85;;;17.30;99.90;;;;;;5011599;28;20129;-75
2022/09/08 04:17:36;;;;;;;47.65;39.53;;;17.30;99.90;;;;;;4995437;28;20038;-77
2022/09/08 04:20:03;;;;;;;48.38;38.17;;;17.30;99.90;;;;;;4996698;28;20046;-75
2022/09/08 04:22:28;;;;;;;46.15;39.03;;;17.40;99.90;;;;;;5012754;28;20042;-77
2022/09/08 04:24:54;;;;;;;49.78;40.00;;;17.30;99.90;;;;;;5013212;28;20060;-76
2022/09/08 04:27:21;;;;;;;47.95;39.08;;;17.40;99.90;;;;;;5012102;28;20682;-75
2022/09/08 04:29:47;;;;;;;46.30;39.08;;;17.40;99.90;;;;;;4996903;28;20411;-76
2022/09/08 04:32:13;;;;;;;53.65;39.35;;;17.40;99.90;;;;;;5011312;28;20038;-76
2022/09/08 04:34:39;;;;;;;52.30;38.55;;;17.40;99.90;;;;;;5003585;28;20481;-76
2022/09/08 04:37:06;;;;;;;48.97;37.05;;;17.40;99.90;;;;;;4996175;28;20120;-75
2022/09/08 04:39:35;;;;;;;50.05;39.55;;;17.50;99.90;;;;;;5012795;28;20485;-75
2022/09/08 04:42:00;;;;;;;48.33;39.17;;;17.50;99.90;;;;;;4996026;28;20065;-75
2022/09/08 04:44:26;;;;;;;47.95;39.40;;;17.60;99.90;;;;;;5012488;28;20450;-76
2022/09/08 04:46:52;;;;;;;47.90;39.22;;;17.60;99.90;;;;;;4996538;28;20058;-75
2022/09/08 04:49:18;;;;;;;48.65;39.15;;;17.60;99.90;;;;;;4990829;28;20057;-75
2022/09/08 04:51:44;;;;;;;48.72;39.88;;;17.60;99.90;;;;;;4994627;28;20082;-76
2022/09/08 04:54:10;;;;;;;46.63;39.42;;;17.50;99.90;;;;;;5012228;28;20065;-77
2022/09/08 04:56:36;;;;;;;48.70;39.63;;;17.60;99.90;;;;;;4996393;28;20425;-75
2022/09/08 04:59:03;;;;;;;47.47;39.42;;;17.50;99.90;;;;;;4992740;28;20097;-75
2022/09/08 05:01:31;;;;;;;46.08;39.10;;;17.60;99.90;;;;;;4993262;28;20042;-76
2022/09/08 05:04:00;;;;;;;50.13;39.45;;;17.60;99.90;;;;;;4995602;28;20363;-75
2022/09/08 05:06:26;;;;;;;52.28;40.67;;;17.60;99.90;;;;;;4985427;28;20042;-77
2022/09/08 05:08:55;;;;;;;52.17;41.08;;;17.60;99.90;;;;;;4986565;28;20064;-76
2022/09/08 05:11:21;;;;;;;57.97;41.45;;;17.60;99.90;;;;;;5012568;28;20458;-75
2022/09/08 05:13:50;;;;;;;49.75;41.38;;;17.60;99.90;;;;;;4994492;28;20057;-75
2022/09/08 05:16:27;;;;;;;57.67;41.28;;;17.60;99.90;;;;;;4995955;28;20042;-78
2022/09/08 05:18:56;;;;;;;48.92;40.63;;;17.60;99.90;;;;;;5009412;28;20053;-75
2022/09/08 05:21:22;;;;;;;52.47;40.33;;;17.60;99.90;;;;;;5011940;28;20056;-75
2022/09/08 05:23:50;;;;;;;52.33;39.85;;;17.70;99.90;;;;;;5011815;28;20539;-75
2022/09/08 05:26:17;;;;;;;50.10;40.58;;;17.70;99.90;;;;;;5012091;28;20042;-77
2022/09/08 05:28:44;;;;;;;49.28;39.50;;;17.70;99.90;;;;;;4994492;28;20067;-76
2022/09/08 05:31:13;;;;;;;50.00;40.42;;;17.70;99.90;;;;;;4995095;28;20087;-77
2022/09/08 05:33:39;;;;;;;49.88;39.72;;;17.70;99.90;;;;;;5015308;28;20041;-76
2022/09/08 05:36:14;;;;;;;47.95;39.60;;;17.70;99.90;;;;;;5011728;28;20053;-75
2022/09/08 05:38:39;;;;;;;50.53;40.78;;;17.70;99.90;;;;;;5011378;28;20041;-77
2022/09/08 05:41:05;;;;;;;52.30;41.30;;;17.70;99.90;;;;;;5011825;28;20378;-75
2022/09/08 05:43:32;;;;;;;49.13;40.45;;;17.80;99.90;;;;;;5010530;28;20046;-75
2022/09/08 05:45:57;;;;;;;48.55;40.03;;;17.70;99.90;;;;;;4988467;28;20497;-75
2022/09/08 05:48:23;;;;;;;47.22;40.05;;;17.70;99.90;;;;;;5009467;28;20133;-75
2022/09/08 05:50:49;;;;;;;54.17;40.88;;;17.70;99.90;;;;;;4995686;28;20095;-76
2022/09/08 05:53:15;;;;;;;53.88;40.35;;;17.70;99.90;;;;;;4992661;28;20041;-73
2022/09/08 05:55:41;;;;;;;49.60;40.78;;;17.70;99.90;;;;;;5008075;28;20041;-77
2022/09/08 05:58:10;;;;;;;54.08;41.47;;;17.70;99.90;;;;;;5010754;28;20492;-75
2022/09/08 06:00:37;;;;;;;51.03;40.72;;;17.70;99.90;;;;;;4995301;28;20033;-77
2022/09/08 06:03:03;;;;;;;53.92;42.53;;;17.70;99.90;;;;;;4994858;28;20049;-76
2022/09/08 06:05:29;;;;;;;55.53;42.58;;;17.70;99.90;;;;;;5010070;28;20451;-75
2022/09/08 06:07:55;;;;;;;59.38;41.72;;;17.80;99.90;;;;;;4993413;28;20065;-77
2022/09/08 06:10:20;;;;;;;52.30;41.92;;;17.80;99.90;;;;;;4994976;28;20046;-75
2022/09/08 06:12:46;;;;;;;54.85;41.20;;;17.80;99.90;;;;;;5009775;28;20137;-73
2022/09/08 06:15:12;;;;;;;49.28;40.53;;;17.80;99.90;;;;;;5011319;28;20065;-77
2022/09/08 06:17:38;;;;;;;49.97;40.17;;;17.80;99.90;;;;;;4994784;28;20081;-76
2022/09/08 06:20:05;;;;;;;49.85;41.08;;;17.90;99.90;;;;;;5011135;28;20370;-76
2022/09/08 06:22:34;;;;;;;52.17;39.90;;;17.90;99.90;;;;;;4993602;28;20129;-76
2022/09/08 06:25:00;;;;;;;56.13;39.58;;;18.00;99.90;;;;;;4993603;28;20149;-78
2022/09/08 06:27:45;;;;;;;45.92;38.38;;;17.90;99.90;;;;;;5010246;28;20168;-75
2022/09/08 06:30:12;;;;;;;;;;;17.90;99.90;;;;;;4987383;28;20164;-74
2022/09/08 06:32:41;;;;;;;46.53;37.35;;;18.00;99.90;;;;;;4996999;28;19925;-77
2022/09/08 06:35:19;;;;;;;44.53;38.40;;;17.90;99.90;;;;;;5014385;28;20045;-75
2022/09/08 06:37:52;;;;;;;48.05;39.88;;;18.00;99.90;;;;;;5015866;28;20054;-76
2022/09/08 06:40:33;;;;;;;50.08;39.45;;;18.00;99.90;;;;;;4994317;28;20042;-75
2022/09/08 06:43:15;;;;;;;48.15;38.50;;;17.90;99.90;;;;;;4999882;28;20086;-75
2022/09/08 06:45:51;;;;;;;55.03;42.97;;;17.90;99.90;;;;;;5010663;28;20481;-75
2022/09/08 06:48:37;;;;;;;53.58;43.20;;;17.80;99.90;;;;;;4993877;28;20071;-76
2022/09/08 06:51:27;;;;;;;63.85;43.30;;;17.70;99.90;;;;;;4993742;28;20132;-76
2022/09/08 06:54:08;;;;;;;56.75;43.55;;;17.70;99.90;;;;;;4993738;28;20046;-75
2022/09/08 06:56:39;;;;;;;58.33;44.03;;;17.70;99.90;;;;;;5010307;28;20446;-75
2022/09/08 06:59:50;;;;;;;60.60;43.72;;;17.60;99.90;;;;;;5007668;28;20046;-74
2022/09/08 07:02:41;;;;;;;66.45;44.35;;;17.60;99.90;;;;;;4984206;28;20046;-77
2022/09/08 07:05:12;;;;;;;61.60;44.97;;;17.60;99.90;;;;;;5010339;28;20153;-77
2022/09/08 07:08:29;;;;;;;60.50;45.30;;;17.70;99.90;;;;;;5010147;28;20046;-75
2022/09/08 07:11:22;;;;;;;61.72;44.42;;;17.70;99.90;;;;;;4957516;28;20086;-74
2022/09/08 07:14:21;;;;;;;59.92;46.33;;;17.60;99.90;;;;;;4971636;28;20498;-76
2022/09/08 07:16:51;;;;;;;61.53;47.42;;;17.60;99.90;;;;;;4960458;28;20053;-75
2022/09/08 07:19:22;;;;;;;60.72;46.55;;;17.60;99.90;;;;;;4957147;28;20074;-77
2022/09/08 07:22:02;;;;;;;66.32;48.80;;;17.50;99.90;;;;;;4973210;28;20049;-75
2022/09/08 07:24:36;;;;;;;64.80;48.83;;;17.50;99.90;;;;;;4973250;28;20109;-75
2022/09/08 07:27:06;;;;;;;67.20;49.17;;;17.50;99.90;;;;;;4981476;28;20054;-75
2022/09/08 07:29:37;;;;;;;61.35;46.10;;;17.50;99.90;;;;;;4955708;28;20050;-75
2022/09/08 07:32:03;;;;;;;65.20;48.25;;;17.50;99.90;;;;;;4973077;28;20046;-74
2022/09/08 07:34:33;;;;;;;60.92;45.75;;;17.40;99.90;;;;;;5007190;28;20054;-76
2022/09/08 07:37:21;;;;;;;65.63;48.05;;;17.40;99.90;;;;;;4992567;28;20117;-75
2022/09/08 07:40:17;;;;;;;64.50;48.72;;;17.40;99.90;;;;;;4974950;28;20474;-74
2022/09/08 07:43:09;;;;;;;70.43;48.80;;;17.50;99.90;;;;;;4971315;28;20066;-76
2022/09/08 07:46:00;;;;;;;69.53;48.20;;;17.40;99.90;;;;;;4961237;28;20065;-76
2022/09/08 07:48:34;;;;;;;64.78;46.28;;;17.40;99.90;;;;;;4993086;28;20080;-76
2022/09/08 07:51:13;;;;;;;68.53;46.75;;;17.40;99.90;;;;;;5010265;28;20050;-76
2022/09/08 07:54:23;;;;;;;65.55;47.15;;;17.40;99.90;;;;;;4993459;28;20054;-75
2022/09/08 07:57:04;;;;;;;61.40;46.45;;;17.40;99.90;;;;;;4976952;28;20046;-75
2022/09/08 07:59:47;;;;;;;65.35;48.30;;;17.40;99.90;;;;;;4960501;28;20050;-76
2022/09/08 08:02:44;;;;;;;64.10;45.78;;;17.40;99.90;;;;;;4960264;28;20046;-75
2022/09/08 08:05:23;;;;;;;57.75;43.90;;;17.30;99.90;;;;;;4969780;28;20084;-75
2022/09/08 08:07:57;;;;;;;56.63;42.00;;;17.40;99.90;;;;;;4941009;28;20054;-77
2022/09/08 08:10:33;;;;;;;51.50;39.85;;;17.30;99.90;;;;;;4941102;28;20042;-75
2022/09/08 08:13:01;;;;;;;57.55;41.80;;;17.30;99.90;;;;;;4948539;28;20062;-75
2022/09/08 08:15:38;;;;;;;53.45;39.22;;;17.30;99.90;;;;;;4976170;28;20466;-75
2022/09/08 08:18:38;;;;;;;53.50;38.40;;;17.30;99.90;;;;;;4976186;28;20485;-76
2022/09/08 08:21:13;;;;;;;47.45;36.22;;;17.30;99.90;;;;;;4992334;28;20082;-75
2022/09/08 08:24:03;;;;;;;53.33;37.00;;;17.30;99.90;;;;;;4959350;28;20049;-76
2022/09/08 08:26:34;;;;;;;52.83;36.67;;;17.30;99.90;;;;;;4976983;28;20078;-76
2022/09/08 08:29:39;;;;;;;45.88;32.95;;;17.30;99.90;;;;;;4995542;28;20046;-75
2022/09/08 08:32:32;;;;;;;48.83;34.85;;;17.30;99.90;;;;;;4989211;28;20089;-75
2022/09/08 08:35:28;;;;;;;50.38;35.22;;;17.40;99.90;;;;;;4958977;28;20180;-74
2022/09/08 08:37:55;;;;;;;43.92;32.83;;;17.40;99.90;;;;;;4989950;28;20046;-75
2022/09/08 08:40:28;;;;;;;43.58;32.30;;;17.40;99.90;;;;;;4975708;28;20053;-75
2022/09/08 08:43:24;;;;;;;43.38;31.90;;;17.40;99.90;;;;;;4970473;28;20042;-75
2022/09/08 08:46:05;;;;;;;39.78;30.63;;;17.50;99.90;;;;;;4918204;29;20156;-75
2022/09/08 08:48:43;;;;;;;41.03;29.85;;;17.50;99.90;;;;;;4918015;29;20044;-75
2022/09/08 08:51:32;;;;;;;37.65;30.33;;;17.60;99.90;;;;;;4917948;29;20499;-76
2022/09/08 08:54:02;;;;;;;39.25;30.38;;;17.60;99.90;;;;;;4902187;29;20424;-77
2022/09/08 08:56:32;;;;;;;38.67;29.27;;;17.60;99.90;;;;;;4916559;29;20051;-77
2022/09/08 08:59:16;;;;;;;38.35;31.58;;;17.70;99.90;;;;;;4901291;29;20052;-75
2022/09/08 09:02:09;;;;;;;37.72;30.80;;;17.80;99.90;;;;;;4917997;29;20047;-75
2022/09/08 09:05:32;;;;;;;37.97;30.95;;;17.80;99.90;;;;;;4918040;29;20063;-75
2022/09/08 09:08:28;;;;;;;38.67;30.60;;;17.80;99.90;;;;;;4879959;29;20163;-76
2022/09/08 09:11:27;;;;;;;39.65;31.38;;;17.90;99.90;;;;;;4895190;29;20053;-76
2022/09/08 09:14:27;;;;;;;39.90;29.63;;;17.90;99.90;;;;;;4858802;29;20164;-75
2022/09/08 09:17:34;;;;;;;36.67;26.65;;;17.90;99.90;;;;;;4861351;29;20052;-76
2022/09/08 09:20:22;;;;;;;33.25;26.90;;;17.90;99.90;;;;;;4861529;29;20057;-77
2022/09/08 09:23:19;;;;;;;30.20;25.63;;;17.90;99.90;;;;;;4884411;28;20058;-76
2022/09/08 09:26:02;;;;;;;31.48;24.38;;;17.90;99.90;;;;;;4919170;29;20062;-75
2022/09/08 09:28:56;;;;;;;30.58;24.80;;;17.80;99.90;;;;;;4935307;29;20372;-76
2022/09/08 09:31:36;;;;;;;31.70;23.70;;;17.90;99.90;;;;;;4935993;29;20554;-76
2022/09/08 09:34:16;;;;;;;29.52;23.45;;;18.00;99.90;;;;;;4935747;29;20843;-76
2022/09/08 09:36:51;;;;;;;25.55;22.17;;;18.00;99.90;;;;;;4936057;29;20039;-77
2022/09/08 09:39:28;;;;;;;26.30;22.05;;;18.10;99.90;;;;;;4992694;28;20111;-77
2022/09/08 09:42:26;;;;;;;31.05;21.83;;;18.10;99.90;;;;;;4995116;28;20496;-76
2022/09/08 09:45:31;;;;;;;24.60;21.67;;;18.30;99.90;;;;;;4980889;28;20393;-76
2022/09/08 09:48:15;;;;;;;25.00;20.38;;;18.30;99.90;;;;;;5010943;28;20077;-75
2022/09/08 09:51:25;;;;;;;25.30;19.58;;;18.30;99.90;;;;;;4995034;28;20046;-75
2022/09/08 09:54:16;;;;;;;22.95;18.58;;;18.40;99.90;;;;;;4974293;28;20053;-75
2022/09/08 09:57:03;;;;;;;20.05;17.55;;;18.40;99.90;;;;;;4974302;28;20055;-75
2022/09/08 09:59:48;;;;;;;21.88;17.42;;;18.40;99.90;;;;;;4974147;28;20256;-75
2022/09/08 10:02:45;;;;;;;15.73;13.68;;;18.40;99.90;;;;;;4956155;28;20062;-76
2022/09/08 10:05:41;;;;;;;18.85;14.52;;;18.50;99.90;;;;;;4956830;28;20046;-74
2022/09/08 10:08:34;;;;;;;16.15;13.98;;;18.50;99.90;;;;;;4971305;28;20058;-75
2022/09/08 10:11:08;;;;;;;17.13;12.65;;;18.50;99.90;;;;;;4958230;28;20039;-76
2022/09/08 10:14:07;;;;;;;15.18;12.60;;;18.60;99.90;;;;;;4987697;28;20043;-76
2022/09/08 10:16:54;;;;;;;13.73;11.02;;;18.60;99.90;;;;;;4974066;28;20046;-76
2022/09/08 10:19:25;;;;;;;10.85;9.40;;;18.50;99.90;;;;;;4973751;28;20379;-76
2022/09/08 10:22:09;;;;;;;9.77;8.35;;;18.50;99.90;;;;;;4974124;28;20054;-77
2022/09/08 10:25:05;;;;;;;11.02;8.55;;;18.50;99.90;;;;;;4956901;28;20050;-78
2022/09/08 10:27:52;;;;;;;10.95;9.05;;;18.50;99.90;;;;;;4964133;28;20112;-75
2022/09/08 10:30:35;;;;;;;11.60;9.15;;;18.50;99.90;;;;;;5010686;28;20485;-76
2022/09/08 10:33:19;;;;;;;9.02;7.95;;;18.50;99.90;;;;;;5010542;28;20396;-76
2022/09/08 10:35:52;;;;;;;13.82;8.25;;;18.50;99.90;;;;;;5004443;28;20037;-76
2022/09/08 10:38:46;;;;;;;9.05;7.70;;;18.40;99.90;;;;;;5008456;28;20046;-75
2022/09/08 10:41:18;;;;;;;7.50;5.97;;;18.50;99.90;;;;;;5008546;28;20481;-78
2022/09/08 10:44:11;;;;;;;8.65;5.60;;;18.50;99.90;;;;;;4996336;28;20140;-75
2022/09/08 10:46:49;;;;;;;5.43;4.38;;;18.50;99.90;;;;;;4973284;28;20145;-75
2022/09/08 10:49:17;;;;;;;4.88;4.25;;;18.50;99.90;;;;;;4973210;28;20050;-76
2022/09/08 10:52:04;;;;;;;5.07;3.97;;;18.50;99.90;;;;;;4973301;28;20108;-77
2022/09/08 10:54:44;;;;;;;5.95;3.72;;;18.40;99.90;;;;;;4984078;28;20104;-74
2022/09/08 10:57:21;;;;;;;3.17;2.70;;;18.40;99.90;;;;;;5004783;28;20058;-75
2022/09/08 10:59:50;;;;;;;7.75;3.30;;;18.30;99.90;;;;;;4991217;28;20092;-75
2022/09/08 11:02:15;;;;;;;4.20;2.97;;;18.20;99.90;;;;;;4992467;28;20033;-76
2022/09/08 11:04:47;;;;;;;5.15;2.70;;;18.20;99.90;;;;;;4992691;28;20071;-75
2022/09/08 11:07:54;;;;;;;5.35;2.72;;;18.20;99.90;;;;;;4976661;28;20073;-74
2022/09/08 11:10:36;;;;;;;8.63;3.03;;;18.10;99.90;;;;;;4953965;28;20570;-76
2022/09/08 11:13:26;;;;;;;5.53;3.28;;;18.10;99.90;;;;;;4952523;28;20091;-77
2022/09/08 11:16:33;;;;;;;6.47;2.90;;;18.10;99.90;;;;;;4953630;28;20082;-76
2022/09/08 11:19:32;;;;;;;4.60;3.22;;;18.10;99.90;;;;;;4880787;29;20049;-76
2022/09/08 11:22:14;;;;;;;4.10;3.05;;;18.10;99.90;;;;;;4859462;29;20049;-75
2022/09/08 11:24:58;;;;;;;7.03;3.45;;;18.10;99.90;;;;;;4828734;29;20067;-75
2022/09/08 11:27:42;;;;;;;5.50;2.90;;;18.20;99.90;;;;;;4874231;29;20863;-75
2022/09/08 11:30:17;;;;;;;3.78;2.58;;;18.20;99.90;;;;;;4876948;29;20084;-74
2022/09/08 11:32:59;;;;;;;3.67;2.28;;;18.20;99.90;;;;;;4843104;29;20044;-75
2022/09/08 11:35:30;;;;;;;3.85;1.80;;;18.20;99.90;;;;;;4855142;29;20041;-77
2022/09/08 11:38:26;;;;;;;4.90;1.70;;;18.10;99.90;;;;;;4843229;29;20045;-75
2022/09/08 11:41:28;;;;;;;3.30;1.40;;;18.20;99.90;;;;;;4844354;29;20140;-75
2022/09/08 11:44:30;;;;;;;3.63;1.60;;;18.10;99.90;;;;;;4843177;29;20062;-77
2022/09/08 11:47:23;;;;;;;4.93;1.60;;;18.10;99.90;;;;;;4893768;29;20526;-76
2022/09/08 11:50:19;;;;;;;2.47;1.13;;;18.10;99.90;;;;;;4916625;29;20055;-75
2022/09/08 11:52:45;;;;;;;2.42;1.30;;;18.00;99.90;;;;;;4902937;29;20040;-75
2022/09/08 11:55:46;;;;;;;3.05;1.30;;;18.00;99.90;;;;;;4943043;28;20503;-75
2022/09/08 11:58:35;;;;;;;3.00;1.23;;;18.00;99.90;;;;;;5012004;28;20049;-76
2022/09/08 12:01:34;;;;;;;5.53;1.70;;;18.00;99.90;;;;;;5013624;28;20053;-77
2022/09/08 12:04:38;;;;;;;5.70;1.50;;;17.90;99.90;;;;;;4995539;28;20472;-76
2022/09/08 12:07:34;;;;;;;3.03;1.40;;;17.90;99.90;;;;;;4997282;28;20638;-77
2022/09/08 12:10:37;;;;;;;4.28;1.60;;;17.90;99.90;;;;;;5013762;28;20108;-75
2022/09/08 12:13:22;;;;;;;3.85;1.50;;;17.90;99.90;;;;;;5011926;28;20064;-76
2022/09/08 12:16:24;;;;;;;3.50;1.70;;;17.80;99.90;;;;;;4996852;28;20095;-75
2022/09/08 12:19:14;;;;;;;4.35;1.63;;;17.80;99.90;;;;;;4996628;28;20053;-75
2022/09/08 12:22:08;;;;;;;5.35;1.70;;;17.80;99.90;;;;;;4996373;28;20554;-77
2022/09/08 12:24:54;;;;;;;5.32;1.77;;;17.80;99.90;;;;;;5013172;28;20152;-75
2022/09/08 12:27:43;;;;;;;6.65;1.90;;;17.90;99.90;;;;;;4990960;28;20133;-76
2022/09/08 12:30:11;;;;;;;4.07;1.80;;;17.90;99.90;;;;;;4977330;28;20054;-75
2022/09/08 12:32:43;;;;;;;3.83;1.98;;;17.90;99.90;;;;;;4982640;28;20056;-76
2022/09/08 12:35:22;;;;;;;4.25;1.90;;;18.00;99.90;;;;;;5016661;28;20464;-76
2022/09/08 12:38:12;;;;;;;6.10;1.77;;;18.00;99.90;;;;;;4999702;28;20049;-76
2022/09/08 12:40:56;;;;;;;3.80;1.70;;;18.10;99.90;;;;;;5013146;28;20046;-77
2022/09/08 12:43:34;;;;;;;2.42;1.60;;;18.10;99.90;;;;;;5011870;28;20354;-74
2022/09/08 12:46:41;;;;;;;3.50;1.50;;;18.10;99.90;;;;;;4979847;28;20049;-76
2022/09/08 12:49:32;;;;;;;4.60;1.63;;;18.20;99.90;;;;;;4995061;28;20050;-76
2022/09/08 12:52:01;;;;;;;2.92;1.80;;;18.20;99.90;;;;;;5009083;28;20046;-75
2022/09/08 12:54:52;;;;;;;5.70;2.15;;;18.20;99.90;;;;;;4981165;28;20348;-75
2022/09/08 12:57:26;;;;;;;5.97;2.13;;;18.20;99.90;;;;;;4975820;28;20458;-77
2022/09/08 13:00:12;;;;;;;5.32;2.25;;;18.20;99.90;;;;;;4996357;28;20037;-75
2022/09/08 13:03:14;;;;;;;6.82;2.40;;;18.20;99.90;;;;;;5011882;28;20112;-76
2022/09/08 13:05:59;;;;;;;5.38;2.50;;;18.10;99.90;;;;;;4994823;28;20164;-74
2022/09/08 13:08:53;;;;;;;4.57;2.40;;;18.20;99.90;;;;;;5012079;28;20371;-77
2022/09/08 13:11:51;;;;;;;5.60;2.53;;;18.20;99.90;;;;;;5012621;28;20037;-76
2022/09/08 13:14:41;;;;;;;3.50;2.67;;;18.10;99.90;;;;;;4991400;28;20137;-76
2022/09/08 13:17:18;;;;;;;8.95;2.80;;;18.20;99.90;;;;;;5002501;28;20476;-77
2022/09/08 13:20:22;;;;;;;6.45;3.13;;;18.20;99.90;;;;;;4995756;28;20045;-76
2022/09/08 13:23:09;;;;;;;6.82;2.72;;;18.40;99.90;;;;;;4993973;28;20049;-78